Terminal Aerodrome Forecast
Issued by NWS

Home | Current Version | Previous Version | Text Only | Print | Product List | Glossary On
Versions: 1 2 3 4 5 6 7 8 9 10 11 12 13 14 15 16 17 18 19 20 21 22 23 24 25
000
FTUS45 KGJT 060547
TAFRIL
TAF
KRIL 060547Z 0606/0706 07004KT P6SM SCT250
     FM060900 08005KT P6SM BKN250
     FM061500 15008KT P6SM VCSH SCT110 BKN250
     FM061900 16011G20KT P6SM VCSH SCT110 BKN250
     FM070200 22010G15KT P6SM VCSH BKN110
     FM070400 31005KT P6SM VCSH BKN200=

USA.gov is the U.S. government's official web portal to all federal, state and local government web resources and services.